Time,TemperatureF,DewpointF,PressureIn,WindDirection,WindDirectionDegrees,WindSpeedMPH,WindSpeedGustMPH,Humidity,HourlyPrecipIn,Conditions,Clouds,dailyrainin,SoftwareType,DateUTC
2013-04-11 00:23:00,58.0,-99.9,29.86,SW,219,-999.0,-999.0,-999,-99.99,,,-99.99,,2013-04-11 04:23:00,
2013-04-11 00:33:00,58.0,-99.9,29.86,SW,219,-999.0,-999.0,-999,-99.99,,,-99.99,,2013-04-11 04:33:00,
2013-04-11 00:43:00,58.0,-99.9,29.86,SW,219,-999.0,-999.0,-999,-99.99,,,-99.99,,2013-04-11 04:43:00,
2013-04-11 00:52:00,58.0,-99.9,29.87,SW,219,-999.0,-999.0,-999,-99.99,,,-99.99,,2013-04-11 04:52:00,
2013-04-11 01:23:00,58.0,-99.9,29.87,SW,219,-999.0,-999.0,-999,-99.99,,,-99.99,,2013-04-11 05:23:00,
2013-04-11 01:32:00,58.0,-99.9,29.87,SW,219,-999.0,-999.0,-999,-99.99,,,-99.99,,2013-04-11 05:32:00,
2013-04-11 01:42:00,58.0,-99.9,29.87,SW,219,-999.0,-999.0,-999,-99.99,,,-99.99,,2013-04-11 05:42:00,
2013-04-11 01:52:00,58.0,-99.9,29.84,SW,219,-999.0,-999.0,-999,-99.99,,,-99.99,,2013-04-11 05:52:00,
2013-04-11 02:22:00,58.0,-99.9,29.84,SW,219,-999.0,-999.0,-999,-99.99,,,-99.99,,2013-04-11 06:22:00,
2013-04-11 02:32:00,58.0,-99.9,29.84,SW,219,-999.0,-999.0,-999,-99.99,,,-99.99,,2013-04-11 06:32:00,
2013-04-11 02:42:00,58.0,-99.9,29.84,SW,219,-999.0,-999.0,-999,-99.99,,,-99.99,,2013-04-11 06:42:00,
2013-04-11 02:52:00,57.0,-99.9,29.83,SW,219,-999.0,-999.0,-999,-99.99,,,-99.99,,2013-04-11 06:52:00,
2013-04-11 03:22:00,57.0,-99.9,29.83,SW,219,-999.0,-999.0,-999,-99.99,,,-99.99,,2013-04-11 07:22:00,
2013-04-11 03:32:00,57.0,-99.9,29.83,SW,219,-999.0,-999.0,-999,-99.99,,,-99.99,,2013-04-11 07:32:00,
2013-04-11 03:43:00,57.0,-99.9,29.83,SW,219,-999.0,-999.0,-999,-99.99,,,-99.99,,2013-04-11 07:43:00,
2013-04-11 03:52:00,57.0,-99.9,29.85,SW,219,-999.0,-999.0,-999,-99.99,,,-99.99,,2013-04-11 07:52:00,
2013-04-11 04:22:00,57.0,-99.9,29.85,SW,219,-999.0,-999.0,-999,-99.99,,,-99.99,,2013-04-11 08:22:00,
2013-04-11 04:33:00,57.0,-99.9,29.85,SW,219,-999.0,-999.0,-999,-99.99,,,-99.99,,2013-04-11 08:33:00,
2013-04-11 04:43:00,57.0,-99.9,29.85,SW,219,-999.0,-999.0,-999,-99.99,,,-99.99,,2013-04-11 08:43:00,
2013-04-11 04:52:00,56.0,-99.9,29.89,SW,219,-999.0,-999.0,-999,-99.99,,,-99.99,,2013-04-11 08:52:00,
2013-04-11 05:22:00,56.0,-99.9,29.89,SW,219,-999.0,-999.0,-999,-99.99,,,-99.99,,2013-04-11 09:22:00,
2013-04-11 05:33:00,56.0,-99.9,29.89,SW,219,-999.0,-999.0,-999,-99.99,,,-99.99,,2013-04-11 09:33:00,
2013-04-11 05:43:00,56.0,-99.9,29.89,SW,219,-999.0,-999.0,-999,-99.99,,,-99.99,,2013-04-11 09:43:00,
2013-04-11 05:52:00,54.0,-99.9,29.92,SW,219,-999.0,-999.0,-999,-99.99,,,-99.99,,2013-04-11 09:52:00,
2013-04-11 06:23:00,54.0,-99.9,29.92,SW,219,-999.0,-999.0,-999,-99.99,,,-99.99,,2013-04-11 10:23:00,
2013-04-11 06:32:00,54.0,-99.9,29.92,SW,219,-999.0,-999.0,-999,-99.99,,,-99.99,,2013-04-11 10:32:00,
2013-04-11 06:42:00,54.0,-99.9,29.92,SW,219,-999.0,-999.0,-999,-99.99,,,-99.99,,2013-04-11 10:42:00,
2013-04-11 06:52:00,53.0,-99.9,29.94,SW,219,-999.0,-999.0,-999,-99.99,,,-99.99,,2013-04-11 10:52:00,
2013-04-11 07:32:00,53.0,-99.9,29.94,SW,219,-999.0,-999.0,-999,-99.99,,,-99.99,,2013-04-11 11:32:00,
2013-04-11 07:43:00,53.0,-99.9,29.94,SW,219,-999.0,-999.0,-999,-99.99,,,-99.99,,2013-04-11 11:43:00,
2013-04-11 07:52:00,53.0,-99.9,29.94,SW,219,-999.0,-999.0,-999,-99.99,,,-99.99,,2013-04-11 11:52:00,
2013-04-11 08:32:00,53.0,-99.9,29.94,SW,219,-999.0,-999.0,-999,-99.99,,,-99.99,,2013-04-11 12:32:00,
2013-04-11 08:43:00,53.0,-99.9,29.94,SW,219,-999.0,-999.0,-999,-99.99,,,-99.99,,2013-04-11 12:43:00,
2013-04-11 08:52:00,53.0,-99.9,29.96,NNE,29,7.0,12.0,-999,-99.99,,,-99.99,,2013-04-11 12:52:00,
2013-04-11 09:23:00,53.0,-99.9,29.96,NNE,29,7.0,12.0,-999,-99.99,,,-99.99,,2013-04-11 13:23:00,
2013-04-11 09:33:00,53.0,-99.9,29.96,NNE,29,7.0,12.0,-999,-99.99,,,-99.99,,2013-04-11 13:33:00,
2013-04-11 09:43:00,53.0,-99.9,29.96,NNE,29,7.0,12.0,-999,-99.99,,,-99.99,,2013-04-11 13:43:00,
2013-04-11 09:53:00,52.0,-99.9,29.98,NNE,16,-999.0,7.0,-999,-99.99,,,-99.99,,2013-04-11 13:53:00,
2013-04-11 10:22:00,52.0,-99.9,29.98,NNE,16,-999.0,7.0,-999,-99.99,,,-99.99,,2013-04-11 14:22:00,
2013-04-11 10:33:00,52.0,-99.9,29.98,NNE,16,-999.0,7.0,-999,-99.99,,,-99.99,,2013-04-11 14:33:00,
2013-04-11 10:43:00,52.0,-99.9,29.98,NNE,16,-999.0,7.0,-999,-99.99,,,-99.99,,2013-04-11 14:43:00,
2013-04-11 10:52:00,53.0,-99.9,29.98,NE,37,3.0,10.0,-999,-99.99,,,-99.99,,2013-04-11 14:52:00,
2013-04-11 11:22:00,53.0,-99.9,29.98,NE,37,3.0,10.0,-999,-99.99,,,-99.99,,2013-04-11 15:22:00,
2013-04-11 11:32:00,53.0,-99.9,29.98,NE,37,3.0,10.0,-999,-99.99,,,-99.99,,2013-04-11 15:32:00,
2013-04-11 11:43:00,53.0,-99.9,29.98,NE,37,3.0,10.0,-999,-99.99,,,-99.99,,2013-04-11 15:43:00,
2013-04-11 11:52:00,54.0,-99.9,29.99,NE,36,-999.0,6.0,-999,-99.99,,,-99.99,,2013-04-11 15:52:00,
2013-04-11 12:23:00,54.0,-99.9,29.99,NE,36,-999.0,6.0,-999,-99.99,,,-99.99,,2013-04-11 16:23:00,
2013-04-11 12:33:00,54.0,-99.9,29.99,NE,36,-999.0,6.0,-999,-99.99,,,-99.99,,2013-04-11 16:33:00,
2013-04-11 12:42:00,54.0,-99.9,29.99,NE,36,-999.0,6.0,-999,-99.99,,,-99.99,,2013-04-11 16:42:00,
2013-04-11 12:52:00,57.0,-99.9,29.98,NNE,26,-999.0,9.0,-999,-99.99,,,-99.99,,2013-04-11 16:52:00,
2013-04-11 13:33:00,57.0,-99.9,29.98,NNE,26,-999.0,9.0,-999,-99.99,,,-99.99,,2013-04-11 17:33:00,
2013-04-11 13:43:00,57.0,-99.9,29.98,NNE,26,-999.0,9.0,-999,-99.99,,,-99.99,,2013-04-11 17:43:00,
2013-04-11 13:52:00,57.0,-99.9,29.97,ENE,66,-999.0,11.0,-999,-99.99,,,-99.99,,2013-04-11 17:52:00,
2013-04-11 14:33:00,57.0,-99.9,29.97,ENE,66,-999.0,11.0,-999,-99.99,,,-99.99,,2013-04-11 18:33:00,
2013-04-11 14:43:00,57.0,-99.9,29.97,ENE,66,-999.0,11.0,-999,-99.99,,,-99.99,,2013-04-11 18:43:00,
2013-04-11 14:53:00,58.0,-99.9,29.96,North,-999,5.0,6.0,-999,-99.99,,,-99.99,,2013-04-11 18:53:00,
2013-04-11 15:23:00,58.0,-99.9,29.96,North,-999,5.0,6.0,-999,-99.99,,,-99.99,,2013-04-11 19:23:00,
2013-04-11 15:33:00,58.0,-99.9,29.96,North,-999,5.0,6.0,-999,-99.99,,,-99.99,,2013-04-11 19:33:00,
2013-04-11 15:43:00,58.0,-99.9,29.96,North,-999,5.0,6.0,-999,-99.99,,,-99.99,,2013-04-11 19:43:00,
2013-04-11 15:52:00,55.0,-99.9,29.95,North,3,8.0,12.0,-999,-99.99,,,-99.99,,2013-04-11 19:52:00,
2013-04-11 16:22:00,55.0,-99.9,29.95,North,3,8.0,12.0,-999,-99.99,,,-99.99,,2013-04-11 20:22:00,
2013-04-11 16:34:00,55.0,-99.9,29.95,North,3,8.0,12.0,-999,-99.99,,,-99.99,,2013-04-11 20:34:00,
2013-04-11 16:43:00,55.0,-99.9,29.95,North,3,8.0,12.0,-999,-99.99,,,-99.99,,2013-04-11 20:43:00,
2013-04-11 16:52:00,53.0,-99.9,29.96,North,0,7.0,9.0,-999,-99.99,,,-99.99,,2013-04-11 20:52:00,
2013-04-11 17:23:00,53.0,-99.9,29.96,North,0,7.0,9.0,-999,-99.99,,,-99.99,,2013-04-11 21:23:00,
2013-04-11 17:33:00,53.0,-99.9,29.96,North,0,7.0,9.0,-999,-99.99,,,-99.99,,2013-04-11 21:33:00,
2013-04-11 17:43:00,53.0,-99.9,29.96,North,0,7.0,9.0,-999,-99.99,,,-99.99,,2013-04-11 21:43:00,
2013-04-11 17:52:00,52.0,-99.9,29.97,NNE,21,6.0,9.0,-999,-99.99,,,-99.99,,2013-04-11 21:52:00,
2013-04-11 18:23:00,52.0,-99.9,29.97,NNE,21,6.0,9.0,-999,-99.99,,,-99.99,,2013-04-11 22:23:00,
2013-04-11 18:33:00,52.0,-99.9,29.97,NNE,21,6.0,9.0,-999,-99.99,,,-99.99,,2013-04-11 22:33:00,
2013-04-11 18:44:00,52.0,-99.9,29.97,NNE,21,6.0,9.0,-999,-99.99,,,-99.99,,2013-04-11 22:44:00,
2013-04-11 18:52:00,50.0,-99.9,29.97,ESE,107,3.0,5.0,-999,-99.99,,,-99.99,,2013-04-11 22:52:00,
2013-04-11 19:23:00,50.0,-99.9,29.97,ESE,107,3.0,5.0,-999,-99.99,,,-99.99,,2013-04-11 23:23:00,
2013-04-11 19:33:00,50.0,-99.9,29.97,ESE,107,3.0,5.0,-999,-99.99,,,-99.99,,2013-04-11 23:33:00,
2013-04-11 19:43:00,50.0,-99.9,29.97,ESE,107,3.0,5.0,-999,-99.99,,,-99.99,,2013-04-11 23:43:00,
2013-04-11 19:52:00,50.0,-99.9,30.00,North,351,-999.0,-999.0,-999,-99.99,,,-99.99,,2013-04-11 23:52:00,
2013-04-11 20:22:00,50.0,-99.9,30.00,North,351,-999.0,-999.0,-999,-99.99,,,-99.99,,2013-04-12 00:22:00,
2013-04-11 20:33:00,50.0,-99.9,30.00,North,351,-999.0,-999.0,-999,-99.99,,,-99.99,,2013-04-12 00:33:00,
2013-04-11 20:43:00,50.0,-99.9,30.00,North,351,-999.0,-999.0,-999,-99.99,,,-99.99,,2013-04-12 00:43:00,
2013-04-11 20:52:00,48.0,-99.9,30.01,SE,126,4.0,-999.0,-999,-99.99,,,-99.99,,2013-04-12 00:52:00,
2013-04-11 21:23:00,48.0,-99.9,30.01,SE,126,4.0,-999.0,-999,-99.99,,,-99.99,,2013-04-12 01:23:00,
2013-04-11 21:33:00,48.0,-99.9,30.01,SE,126,4.0,-999.0,-999,-99.99,,,-99.99,,2013-04-12 01:33:00,
2013-04-11 21:42:00,48.0,-99.9,30.01,SE,126,4.0,-999.0,-999,-99.99,,,-99.99,,2013-04-12 01:42:00,
2013-04-11 22:52:00,44.0,-99.9,30.03,North,-999,-999.0,9.0,-999,-99.99,,,-99.99,,2013-04-12 02:52:00,
2013-04-11 23:33:00,44.0,-99.9,30.03,North,-999,-999.0,9.0,-999,-99.99,,,-99.99,,2013-04-12 03:33:00,
2013-04-11 23:43:00,44.0,-99.9,30.03,North,-999,-999.0,9.0,-999,-99.99,,,-99.99,,2013-04-12 03:43:00,
2013-04-11 23:52:00,42.0,-99.9,30.02,NNE,24,5.0,10.0,-999,-99.99,,,-99.99,,2013-04-12 03:52:00,